Time;durP1;ratioP1;P1;durP2;ratioP2;P2;SDS_P1;SDS_P2;PMS_P1;PMS_P2;Temp;Humidity;BMP_temperature;BMP_pressure;BME280_temperature;BME280_humidity;BME280_pressure;Samples;Min_cycle;Max_cycle;Signal;HPM_P1;HPM_P2
2023/09/23 00:00:15;;;;;;;0.63;0.30;;;;;;;;;;5047025;28;20045;-60
2023/09/23 00:02:46;;;;;;;0.17;0.10;;;;;;;;;;5046786;28;20382;-60
2023/09/23 00:05:15;;;;;;;0.20;0.20;;;;;;;;;;5046303;28;20233;-60
2023/09/23 00:07:41;;;;;;;0.20;0.20;;;;;;;;;;5046680;28;20045;-60
2023/09/23 00:10:08;;;;;;;0.55;0.30;;;;;;;;;;5046101;28;20047;-60
2023/09/23 00:12:38;;;;;;;0.10;0.10;;;;;;;;;;5046895;28;20037;-60
2023/09/23 00:15:05;;;;;;;0.98;0.20;;;;;;;;;;5038766;28;20066;-60
2023/09/23 00:17:31;;;;;;;0.10;0.10;;;;;;;;;;5045970;28;20037;-60
2023/09/23 00:19:58;;;;;;;0.10;0.10;;;;;;;;;;5046523;28;20174;-60
2023/09/23 00:22:24;;;;;;;0.35;0.30;;;;;;;;;;5046460;28;20049;-60
2023/09/23 00:24:50;;;;;;;0.20;0.17;;;;;;;;;;5045928;28;20335;-60
2023/09/23 00:27:17;;;;;;;0.10;0.10;;;;;;;;;;5046862;28;20044;-60
2023/09/23 00:29:44;;;;;;;0.20;0.17;;;;;;;;;;5046198;28;20501;-60
2023/09/23 00:32:14;;;;;;;0.17;0.17;;;;;;;;;;5045638;28;20051;-60
2023/09/23 00:34:40;;;;;;;0.20;0.20;;;;;;;;;;5046210;28;20059;-60
2023/09/23 00:37:08;;;;;;;0.40;0.38;;;;;;;;;;5045939;28;20465;-60
2023/09/23 00:39:42;;;;;;;0.57;0.20;;;;;;;;;;5045443;28;20041;-60
2023/09/23 00:42:10;;;;;;;0.57;0.30;;;;;;;;;;5046279;28;20473;-60
2023/09/23 00:44:40;;;;;;;0.30;0.30;;;;;;;;;;5045943;28;20495;-60
2023/09/23 00:47:07;;;;;;;0.20;0.20;;;;;;;;;;5045563;28;20049;-60
2023/09/23 00:49:34;;;;;;;0.68;0.57;;;;;;;;;;5045894;28;20119;-60
2023/09/23 00:52:01;;;;;;;0.40;0.30;;;;;;;;;;5045908;28;20045;-60
2023/09/23 00:54:27;;;;;;;0.50;0.38;;;;;;;;;;5045263;28;20052;-60
2023/09/23 00:56:53;;;;;;;0.45;0.20;;;;;;;;;;5046037;28;20057;-60
2023/09/23 00:59:19;;;;;;;0.47;0.30;;;;;;;;;;5045600;28;20149;-60
2023/09/23 01:01:49;;;;;;;0.45;0.32;;;;;;;;;;5045814;28;20441;-60
2023/09/23 01:04:15;;;;;;;0.55;0.38;;;;;;;;;;5045769;28;20638;-60
2023/09/23 01:06:41;;;;;;;0.30;0.13;;;;;;;;;;5044959;28;20045;-60
2023/09/23 01:09:13;;;;;;;0.13;0.10;;;;;;;;;;5052897;28;20806;-60
2023/09/23 01:11:39;;;;;;;0.10;0.10;;;;;;;;;;5052224;28;20404;-60
2023/09/23 01:14:06;;;;;;;0.20;0.20;;;;;;;;;;5034162;28;20048;-60
2023/09/23 01:16:33;;;;;;;0.38;0.30;;;;;;;;;;5047452;28;20045;-60
2023/09/23 01:18:59;;;;;;;0.35;0.20;;;;;;;;;;5048940;28;20087;-60
2023/09/23 01:21:25;;;;;;;0.20;0.20;;;;;;;;;;5049741;28;20033;-60
2023/09/23 01:23:53;;;;;;;0.17;0.17;;;;;;;;;;5052026;28;20446;-60
2023/09/23 01:26:19;;;;;;;0.10;0.10;;;;;;;;;;5049336;28;20073;-60
2023/09/23 01:28:47;;;;;;;0.20;0.20;;;;;;;;;;5048878;28;20079;-60
2023/09/23 01:31:14;;;;;;;0.10;0.10;;;;;;;;;;5055790;28;20131;-61
2023/09/23 01:33:40;;;;;;;0.13;0.13;;;;;;;;;;5053390;28;20100;-60
2023/09/23 01:36:06;;;;;;;0.45;0.20;;;;;;;;;;5052892;28;20076;-61
2023/09/23 01:38:32;;;;;;;0.32;0.20;;;;;;;;;;5054674;28;20449;-60
2023/09/23 01:41:01;;;;;;;0.20;0.10;;;;;;;;;;5047193;28;20689;-60
2023/09/23 01:43:27;;;;;;;0.20;0.20;;;;;;;;;;5048722;28;20421;-60
2023/09/23 01:45:58;;;;;;;0.20;0.20;;;;;;;;;;5056485;28;20414;-59
2023/09/23 01:48:27;;;;;;;0.10;0.10;;;;;;;;;;5050875;28;20067;-60
2023/09/23 01:50:53;;;;;;;0.00;0.00;;;;;;;;;;5051837;28;20500;-60
2023/09/23 01:53:23;;;;;;;0.30;0.30;;;;;;;;;;5055525;28;20571;-60
2023/09/23 01:55:49;;;;;;;1.48;0.20;;;;;;;;;;5054091;28;20099;-60
2023/09/23 01:58:15;;;;;;;0.15;0.15;;;;;;;;;;5056106;28;20075;-60
2023/09/23 02:00:42;;;;;;;0.20;0.13;;;;;;;;;;5053092;28;20816;-60
2023/09/23 02:03:08;;;;;;;0.10;0.10;;;;;;;;;;5051016;28;20473;-60
2023/09/23 02:05:34;;;;;;;0.13;0.13;;;;;;;;;;5054100;28;20033;-60
2023/09/23 02:08:00;;;;;;;0.30;0.10;;;;;;;;;;5057559;28;20044;-60
2023/09/23 02:10:28;;;;;;;0.20;0.20;;;;;;;;;;5056074;28;20036;-60
2023/09/23 02:12:54;;;;;;;0.63;0.25;;;;;;;;;;5056400;28;20041;-60
2023/09/23 02:15:20;;;;;;;0.20;0.20;;;;;;;;;;5054805;28;20429;-60
2023/09/23 02:17:47;;;;;;;0.10;0.08;;;;;;;;;;5051326;28;20405;-60
2023/09/23 02:20:21;;;;;;;0.38;0.30;;;;;;;;;;5054427;28;20366;-60
2023/09/23 02:22:48;;;;;;;0.10;0.10;;;;;;;;;;5051612;28;20799;-60
2023/09/23 02:25:14;;;;;;;0.20;0.20;;;;;;;;;;5056929;28;20055;-60
2023/09/23 02:27:41;;;;;;;0.10;0.08;;;;;;;;;;5053265;28;20033;-60
2023/09/23 02:30:11;;;;;;;0.40;0.20;;;;;;;;;;5054123;28;20049;-60
2023/09/23 02:32:42;;;;;;;0.80;0.10;;;;;;;;;;5054253;28;20056;-60
2023/09/23 02:35:11;;;;;;;0.30;0.20;;;;;;;;;;5055683;28;20652;-60
2023/09/23 02:37:38;;;;;;;0.30;0.30;;;;;;;;;;5054050;28;20385;-60
2023/09/23 02:40:06;;;;;;;0.30;0.20;;;;;;;;;;5057118;28;20488;-60
2023/09/23 02:42:32;;;;;;;0.25;0.10;;;;;;;;;;5056521;28;20062;-60
2023/09/23 02:44:58;;;;;;;0.10;0.10;;;;;;;;;;5057430;28;20041;-59
2023/09/23 02:47:24;;;;;;;0.25;0.22;;;;;;;;;;5058860;28;20037;-59
2023/09/23 02:49:50;;;;;;;0.20;0.20;;;;;;;;;;5059187;28;20045;-60
2023/09/23 02:52:16;;;;;;;0.10;0.10;;;;;;;;;;5057718;28;20045;-60
2023/09/23 02:54:42;;;;;;;0.30;0.30;;;;;;;;;;5055498;28;20779;-60
2023/09/23 02:57:12;;;;;;;1.17;0.32;;;;;;;;;;5057486;28;20045;-60
2023/09/23 02:59:41;;;;;;;0.20;0.20;;;;;;;;;;5054584;28;20420;-60
2023/09/23 03:02:08;;;;;;;0.38;0.38;;;;;;;;;;5053027;28;20136;-60
2023/09/23 03:04:34;;;;;;;0.30;0.30;;;;;;;;;;5053052;28;20170;-60
2023/09/23 03:07:06;;;;;;;0.40;0.40;;;;;;;;;;5051935;28;20048;-60
2023/09/23 03:09:32;;;;;;;0.20;0.20;;;;;;;;;;5052160;28;20041;-60
2023/09/23 03:12:00;;;;;;;0.35;0.35;;;;;;;;;;5051440;28;20469;-59
2023/09/23 03:14:38;;;;;;;0.40;0.40;;;;;;;;;;5058326;28;20376;-60
2023/09/23 03:17:04;;;;;;;0.43;0.43;;;;;;;;;;5056067;28;20064;-60
2023/09/23 03:19:34;;;;;;;1.00;0.85;;;;;;;;;;5051369;28;20112;-60
2023/09/23 03:22:01;;;;;;;0.50;0.50;;;;;;;;;;5057791;28;20045;-60
2023/09/23 03:24:28;;;;;;;0.52;0.52;;;;;;;;;;5053579;28;20067;-59
2023/09/23 03:26:55;;;;;;;1.10;1.00;;;;;;;;;;5058365;28;20143;-60
2023/09/23 03:29:28;;;;;;;1.17;0.88;;;;;;;;;;5033330;28;20045;-60
2023/09/23 03:31:55;;;;;;;1.00;0.90;;;;;;;;;;5054050;28;20500;-60
2023/09/23 03:34:21;;;;;;;0.50;0.50;;;;;;;;;;5052269;28;20041;-60
2023/09/23 03:36:48;;;;;;;1.02;0.90;;;;;;;;;;5051461;28;20094;-60
2023/09/23 03:39:17;;;;;;;1.67;1.05;;;;;;;;;;5053997;28;20040;-60
2023/09/23 03:41:46;;;;;;;0.82;0.82;;;;;;;;;;5057539;28;20044;-60
2023/09/23 03:44:15;;;;;;;0.68;0.65;;;;;;;;;;5052226;28;20041;-59
2023/09/23 03:46:48;;;;;;;0.50;0.50;;;;;;;;;;5058246;28;20041;-59
2023/09/23 03:49:14;;;;;;;0.90;0.82;;;;;;;;;;5051310;28;20745;-60
2023/09/23 03:51:40;;;;;;;0.60;0.60;;;;;;;;;;5053214;28;20389;-60
2023/09/23 03:54:07;;;;;;;0.20;0.20;;;;;;;;;;5055168;28;20571;-60
2023/09/23 03:56:33;;;;;;;0.55;0.40;;;;;;;;;;5056632;28;20056;-60
2023/09/23 03:59:00;;;;;;;0.40;0.40;;;;;;;;;;5057210;28;20051;-60
2023/09/23 04:01:26;;;;;;;0.40;0.40;;;;;;;;;;5055366;28;20527;-59
2023/09/23 04:03:52;;;;;;;0.40;0.40;;;;;;;;;;5054198;28;20048;-59
2023/09/23 04:06:18;;;;;;;0.63;0.60;;;;;;;;;;5056295;28;20045;-60
2023/09/23 04:08:44;;;;;;;0.50;0.47;;;;;;;;;;5057429;28;20032;-60
2023/09/23 04:11:15;;;;;;;0.50;0.50;;;;;;;;;;5057265;28;20049;-60
2023/09/23 04:13:41;;;;;;;0.73;0.50;;;;;;;;;;5055978;28;20048;-60
2023/09/23 04:16:09;;;;;;;0.60;0.60;;;;;;;;;;5056634;28;20038;-60
2023/09/23 04:18:35;;;;;;;0.50;0.40;;;;;;;;;;5056020;28;20037;-60
2023/09/23 04:21:01;;;;;;;0.55;0.47;;;;;;;;;;5055847;28;20048;-60
2023/09/23 04:23:27;;;;;;;0.50;0.50;;;;;;;;;;5054990;28;20037;-60
2023/09/23 04:25:53;;;;;;;0.65;0.65;;;;;;;;;;5056182;28;20048;-60
2023/09/23 04:28:19;;;;;;;0.95;0.70;;;;;;;;;;5055190;28;20041;-60
2023/09/23 04:30:46;;;;;;;0.82;0.82;;;;;;;;;;5057259;28;20044;-60
2023/09/23 04:33:15;;;;;;;1.10;1.05;;;;;;;;;;5054150;28;20048;-60
2023/09/23 04:35:41;;;;;;;0.70;0.70;;;;;;;;;;5053496;28;20132;-60
2023/09/23 04:38:07;;;;;;;1.98;0.80;;;;;;;;;;5050068;28;20099;-60
2023/09/23 04:40:33;;;;;;;1.60;1.20;;;;;;;;;;5051106;28;20094;-60
2023/09/23 04:43:00;;;;;;;2.35;1.10;;;;;;;;;;5046155;28;20070;-60
2023/09/23 04:45:26;;;;;;;0.98;0.98;;;;;;;;;;5052861;28;20436;-60
2023/09/23 04:47:52;;;;;;;1.35;1.25;;;;;;;;;;5055947;28;20123;-59
2023/09/23 04:50:18;;;;;;;1.58;1.48;;;;;;;;;;5054771;28;20102;-60
2023/09/23 04:52:46;;;;;;;1.83;1.73;;;;;;;;;;5052041;28;20048;-60
2023/09/23 04:55:12;;;;;;;1.42;1.27;;;;;;;;;;5049678;28;20141;-60
2023/09/23 04:57:39;;;;;;;1.40;1.30;;;;;;;;;;5049984;28;20049;-60
2023/09/23 05:00:09;;;;;;;1.30;1.20;;;;;;;;;;5054432;28;20060;-60
2023/09/23 05:02:39;;;;;;;0.93;0.93;;;;;;;;;;5052603;28;20046;-60
2023/09/23 05:05:05;;;;;;;0.90;0.90;;;;;;;;;;5051199;28;20044;-60
2023/09/23 05:07:31;;;;;;;0.85;0.77;;;;;;;;;;5052377;28;20040;-60
2023/09/23 05:09:57;;;;;;;1.20;1.10;;;;;;;;;;5054051;28;20068;-60
2023/09/23 05:12:24;;;;;;;0.75;0.75;;;;;;;;;;5053914;28;20380;-60
2023/09/23 05:14:50;;;;;;;1.00;0.90;;;;;;;;;;5055302;28;20500;-60
2023/09/23 05:17:16;;;;;;;1.13;1.13;;;;;;;;;;5055205;28;20560;-60
2023/09/23 05:19:46;;;;;;;1.80;1.30;;;;;;;;;;5053946;28;20040;-60
2023/09/23 05:22:12;;;;;;;1.38;1.27;;;;;;;;;;5050560;28;20097;-60
2023/09/23 05:24:39;;;;;;;0.63;0.63;;;;;;;;;;5055482;28;20044;-60
2023/09/23 05:27:05;;;;;;;0.80;0.80;;;;;;;;;;5046828;28;20112;-60
2023/09/23 05:29:31;;;;;;;0.80;0.80;;;;;;;;;;5049781;28;20065;-60
2023/09/23 05:31:57;;;;;;;0.70;0.70;;;;;;;;;;5047759;28;20052;-60
2023/09/23 05:34:24;;;;;;;1.30;0.90;;;;;;;;;;5050312;28;20686;-60
2023/09/23 05:36:50;;;;;;;0.70;0.60;;;;;;;;;;5056157;28;20044;-60
2023/09/23 05:39:19;;;;;;;0.70;0.70;;;;;;;;;;5046430;28;20048;-60
2023/09/23 05:41:47;;;;;;;0.73;0.70;;;;;;;;;;5052394;28;20051;-60
2023/09/23 05:44:13;;;;;;;0.63;0.60;;;;;;;;;;5049251;28;20091;-60
2023/09/23 05:46:42;;;;;;;0.40;0.40;;;;;;;;;;5051401;28;20047;-60
2023/09/23 05:49:08;;;;;;;1.05;1.05;;;;;;;;;;5051324;28;20585;-60
2023/09/23 05:51:34;;;;;;;0.82;0.82;;;;;;;;;;5048815;28;20057;-60
2023/09/23 05:54:01;;;;;;;1.42;1.33;;;;;;;;;;5052689;28;20416;-59
2023/09/23 05:56:27;;;;;;;0.90;0.90;;;;;;;;;;5048371;28;20524;-60
2023/09/23 05:58:53;;;;;;;0.75;0.75;;;;;;;;;;5049721;28;20126;-60
2023/09/23 06:01:19;;;;;;;1.30;1.00;;;;;;;;;;5054480;28;20041;-60
2023/09/23 06:03:45;;;;;;;0.80;0.80;;;;;;;;;;5057737;28;20041;-60
2023/09/23 06:06:11;;;;;;;1.00;1.00;;;;;;;;;;5058185;28;20051;-60
2023/09/23 06:08:38;;;;;;;0.95;0.80;;;;;;;;;;5050261;28;20037;-60
2023/09/23 06:11:04;;;;;;;0.70;0.70;;;;;;;;;;5060931;28;20128;-60
2023/09/23 06:13:34;;;;;;;2.10;1.30;;;;;;;;;;5055130;28;20036;-60
2023/09/23 06:16:01;;;;;;;1.52;1.42;;;;;;;;;;5056798;28;20817;-60
2023/09/23 06:18:27;;;;;;;1.30;1.20;;;;;;;;;;5056655;28;20048;-60
2023/09/23 06:21:04;;;;;;;1.42;1.33;;;;;;;;;;5055084;28;20110;-60
2023/09/23 06:23:30;;;;;;;0.73;0.73;;;;;;;;;;5047675;28;20603;-60
2023/09/23 06:25:58;;;;;;;1.02;0.95;;;;;;;;;;5047333;28;20558;-60
2023/09/23 06:28:24;;;;;;;1.05;1.00;;;;;;;;;;5047199;28;20037;-60
2023/09/23 06:30:50;;;;;;;1.33;1.23;;;;;;;;;;5047685;28;20052;-60
2023/09/23 06:33:16;;;;;;;1.00;1.00;;;;;;;;;;5051264;28;20534;-60
2023/09/23 06:35:43;;;;;;;1.20;1.20;;;;;;;;;;5050837;28;20033;-60
2023/09/23 06:38:09;;;;;;;1.20;1.10;;;;;;;;;;5042669;28;20374;-60
2023/09/23 06:40:35;;;;;;;2.58;2.25;;;;;;;;;;5057058;28;20048;-60
2023/09/23 06:43:02;;;;;;;4.97;3.03;;;;;;;;;;5056905;28;20041;-60
2023/09/23 06:45:28;;;;;;;3.55;3.33;;;;;;;;;;5046858;28;20040;-60
2023/09/23 06:47:54;;;;;;;2.70;2.10;;;;;;;;;;5051103;28;20044;-60
2023/09/23 06:50:20;;;;;;;2.20;1.63;;;;;;;;;;5047009;28;20489;-60
2023/09/23 06:52:47;;;;;;;2.22;2.13;;;;;;;;;;5050664;28;20036;-60
2023/09/23 06:55:13;;;;;;;2.40;2.20;;;;;;;;;;5052962;28;20132;-60
2023/09/23 06:57:39;;;;;;;1.92;1.80;;;;;;;;;;5051202;28;20052;-60
2023/09/23 07:00:07;;;;;;;2.00;1.90;;;;;;;;;;5047155;28;20049;-60
2023/09/23 07:02:33;;;;;;;1.80;1.70;;;;;;;;;;5054861;28;20083;-60
2023/09/23 07:04:59;;;;;;;3.35;3.15;;;;;;;;;;5048381;28;20135;-60
2023/09/23 07:07:25;;;;;;;2.65;2.42;;;;;;;;;;5052389;28;20078;-60
2023/09/23 07:09:51;;;;;;;2.40;2.20;;;;;;;;;;5051483;28;20049;-60
2023/09/23 07:12:17;;;;;;;1.73;1.63;;;;;;;;;;5059417;28;20455;-60
2023/09/23 07:14:44;;;;;;;2.33;2.13;;;;;;;;;;5045922;28;20033;-60
2023/09/23 07:17:10;;;;;;;2.03;1.83;;;;;;;;;;5050003;28;20147;-60
2023/09/23 07:19:36;;;;;;;1.67;1.58;;;;;;;;;;5046036;28;20120;-60
2023/09/23 07:22:02;;;;;;;2.25;2.05;;;;;;;;;;5047495;28;20041;-60
2023/09/23 07:24:30;;;;;;;3.42;2.95;;;;;;;;;;5046249;28;20083;-60
2023/09/23 07:26:57;;;;;;;2.60;2.40;;;;;;;;;;5046340;28;20048;-60
2023/09/23 07:29:24;;;;;;;2.55;2.00;;;;;;;;;;5048012;28;20052;-60
2023/09/23 07:31:50;;;;;;;2.80;2.60;;;;;;;;;;5051317;28;20079;-60
2023/09/23 07:34:16;;;;;;;2.17;1.85;;;;;;;;;;5055343;28;20041;-60
2023/09/23 07:36:43;;;;;;;2.45;2.25;;;;;;;;;;5061869;28;20040;-60
2023/09/23 07:39:10;;;;;;;2.05;1.95;;;;;;;;;;5048907;28;20045;-60
2023/09/23 07:41:36;;;;;;;1.83;1.73;;;;;;;;;;5051906;28;20060;-60
2023/09/23 07:44:03;;;;;;;1.80;1.67;;;;;;;;;;5052634;28;20409;-60
2023/09/23 07:46:29;;;;;;;2.10;2.00;;;;;;;;;;5050961;28;20146;-60
2023/09/23 07:48:55;;;;;;;2.42;2.22;;;;;;;;;;5051702;28;20120;-60
2023/09/23 07:51:21;;;;;;;2.90;2.30;;;;;;;;;;5047575;28;20033;-60
2023/09/23 07:53:47;;;;;;;2.40;2.20;;;;;;;;;;5053985;28;20524;-60
2023/09/23 07:56:13;;;;;;;2.10;2.00;;;;;;;;;;5047302;28;20089;-60
2023/09/23 07:58:39;;;;;;;3.13;2.83;;;;;;;;;;5052422;28;20082;-60
2023/09/23 08:01:05;;;;;;;2.83;2.63;;;;;;;;;;5048052;28;20570;-60
2023/09/23 08:03:31;;;;;;;2.20;2.03;;;;;;;;;;5046041;28;20148;-61
2023/09/23 08:05:57;;;;;;;1.95;1.73;;;;;;;;;;5047101;28;20420;-63
2023/09/23 08:08:23;;;;;;;1.83;1.58;;;;;;;;;;5047315;28;20045;-58
2023/09/23 08:10:50;;;;;;;2.40;1.20;;;;;;;;;;5046881;28;20045;-63
2023/09/23 08:13:16;;;;;;;2.65;2.20;;;;;;;;;;5046820;28;20491;-61
2023/09/23 08:15:42;;;;;;;2.20;2.00;;;;;;;;;;5046340;28;20527;-63
2023/09/23 08:18:08;;;;;;;1.55;1.45;;;;;;;;;;5053769;28;20040;-60
2023/09/23 08:20:35;;;;;;;1.00;1.00;;;;;;;;;;5046544;28;20052;-60
2023/09/23 08:23:02;;;;;;;1.20;1.10;;;;;;;;;;5045325;28;20037;-61
2023/09/23 08:25:28;;;;;;;1.85;1.20;;;;;;;;;;5046367;28;20084;-61
2023/09/23 08:27:54;;;;;;;1.30;1.20;;;;;;;;;;5049838;28;20177;-60
2023/09/23 08:30:20;;;;;;;1.60;1.50;;;;;;;;;;5050656;28;20056;-61
2023/09/23 08:32:46;;;;;;;2.25;1.98;;;;;;;;;;5051380;28;20755;-60
2023/09/23 08:35:12;;;;;;;1.27;1.17;;;;;;;;;;5046807;28;20069;-61
2023/09/23 08:37:38;;;;;;;2.97;2.53;;;;;;;;;;5045188;28;20608;-60
2023/09/23 08:40:10;;;;;;;2.60;2.40;;;;;;;;;;5050225;28;20068;-61
2023/09/23 08:42:36;;;;;;;;;;;;;;;;;;5048074;28;20074;-60
2023/09/23 08:45:03;;;;;;;1.63;1.23;;;;;;;;;;5045928;28;19925;-60
2023/09/23 08:47:30;;;;;;;3.75;2.03;;;;;;;;;;5048289;28;20049;-60
2023/09/23 08:49:56;;;;;;;2.88;2.67;;;;;;;;;;5053017;28;20207;-60
2023/09/23 08:52:24;;;;;;;2.97;1.98;;;;;;;;;;5050576;28;20037;-60
2023/09/23 08:54:51;;;;;;;1.80;1.70;;;;;;;;;;5054332;28;20074;-60
2023/09/23 08:57:17;;;;;;;3.70;2.50;;;;;;;;;;5053868;28;20056;-60
2023/09/23 08:59:43;;;;;;;2.53;2.33;;;;;;;;;;5047673;28;20041;-60
2023/09/23 09:02:11;;;;;;;2.00;1.80;;;;;;;;;;5045751;28;20148;-60
2023/09/23 09:04:37;;;;;;;1.95;1.80;;;;;;;;;;5045901;28;20572;-60
2023/09/23 09:07:03;;;;;;;2.10;1.98;;;;;;;;;;5053801;28;20051;-60
2023/09/23 09:09:29;;;;;;;4.15;1.83;;;;;;;;;;5044845;28;20072;-60
2023/09/23 09:11:58;;;;;;;1.45;1.35;;;;;;;;;;5043314;28;20076;-60
2023/09/23 09:14:25;;;;;;;1.80;1.33;;;;;;;;;;5044641;28;20040;-60
2023/09/23 09:16:51;;;;;;;1.40;1.30;;;;;;;;;;5045416;28;20053;-60
2023/09/23 09:19:18;;;;;;;0.95;0.85;;;;;;;;;;5044612;28;20445;-60
2023/09/23 09:21:44;;;;;;;1.30;1.02;;;;;;;;;;5044885;28;20087;-60
2023/09/23 09:24:10;;;;;;;2.83;1.60;;;;;;;;;;5042544;28;20025;-60
2023/09/23 09:26:38;;;;;;;1.02;0.90;;;;;;;;;;5040741;28;20036;-60
2023/09/23 09:29:04;;;;;;;1.13;1.00;;;;;;;;;;5040834;28;20036;-60
2023/09/23 09:31:33;;;;;;;2.13;1.23;;;;;;;;;;5049560;28;20037;-60
2023/09/23 09:34:02;;;;;;;0.90;0.90;;;;;;;;;;5046855;28;20533;-60
2023/09/23 09:36:29;;;;;;;1.73;1.40;;;;;;;;;;5051238;28;20507;-60
2023/09/23 09:38:55;;;;;;;2.53;1.88;;;;;;;;;;5049408;28;20081;-60
2023/09/23 09:41:35;;;;;;;2.13;1.40;;;;;;;;;;5048968;28;20366;-60
2023/09/23 09:44:02;;;;;;;1.88;1.40;;;;;;;;;;5043311;28;20044;-60
2023/09/23 09:46:31;;;;;;;2.08;1.33;;;;;;;;;;5047667;28;20040;-60
2023/09/23 09:48:57;;;;;;;1.75;0.68;;;;;;;;;;5053941;28;20058;-60
2023/09/23 09:51:25;;;;;;;1.55;0.80;;;;;;;;;;5049349;28;20048;-60
2023/09/23 09:53:51;;;;;;;0.60;0.60;;;;;;;;;;5050338;28;20041;-60
2023/09/23 09:56:19;;;;;;;2.63;1.08;;;;;;;;;;5049922;28;20060;-60
2023/09/23 09:58:48;;;;;;;1.25;0.77;;;;;;;;;;5049324;28;20550;-60
2023/09/23 10:01:14;;;;;;;0.95;0.63;;;;;;;;;;5047848;28;20045;-60
2023/09/23 10:03:48;;;;;;;1.20;0.60;;;;;;;;;;5049703;28;20048;-60
2023/09/23 10:06:26;;;;;;;0.85;0.70;;;;;;;;;;5042660;28;20080;-60
2023/09/23 10:08:53;;;;;;;1.65;0.60;;;;;;;;;;5044278;28;20600;-60
2023/09/23 10:11:31;;;;;;;0.50;0.50;;;;;;;;;;5044849;28;20041;-60
2023/09/23 10:13:57;;;;;;;0.95;0.70;;;;;;;;;;5050074;28;20055;-60
2023/09/23 10:16:29;;;;;;;0.63;0.50;;;;;;;;;;5051434;28;20048;-60
2023/09/23 10:18:56;;;;;;;1.30;0.60;;;;;;;;;;5051324;28;20675;-61
2023/09/23 10:21:24;;;;;;;0.50;0.40;;;;;;;;;;5042273;28;20045;-60
2023/09/23 10:23:51;;;;;;;0.40;0.40;;;;;;;;;;5045496;28;20198;-60
2023/09/23 10:26:18;;;;;;;0.43;0.40;;;;;;;;;;5046678;28;20285;-60
2023/09/23 10:28:57;;;;;;;0.80;0.60;;;;;;;;;;5048595;28;20036;-60
2023/09/23 10:31:25;;;;;;;1.92;1.05;;;;;;;;;;5044981;28;20033;-61
2023/09/23 10:33:52;;;;;;;1.33;1.10;;;;;;;;;;5045228;28;20813;-60
2023/09/23 10:36:22;;;;;;;1.70;1.40;;;;;;;;;;5053551;28;20044;-61
2023/09/23 10:38:48;;;;;;;1.27;1.17;;;;;;;;;;5040725;28;20049;-60
2023/09/23 10:41:15;;;;;;;1.15;0.80;;;;;;;;;;5044143;28;20069;-61
2023/09/23 10:43:41;;;;;;;0.80;0.80;;;;;;;;;;5045308;28;20033;-60
2023/09/23 10:46:07;;;;;;;1.15;0.75;;;;;;;;;;5052047;28;20115;-61
2023/09/23 10:48:34;;;;;;;1.48;0.60;;;;;;;;;;5046045;28;20037;-61
2023/09/23 10:51:01;;;;;;;0.63;0.60;;;;;;;;;;5051642;28;20449;-61
2023/09/23 10:53:30;;;;;;;1.08;0.60;;;;;;;;;;5050508;28;20583;-60
2023/09/23 10:55:57;;;;;;;0.85;0.52;;;;;;;;;;5048310;28;20056;-60
2023/09/23 10:58:24;;;;;;;1.77;0.77;;;;;;;;;;5053532;28;20068;-60
2023/09/23 11:00:52;;;;;;;1.15;0.40;;;;;;;;;;5049267;28;20049;-60
2023/09/23 11:03:19;;;;;;;0.75;0.40;;;;;;;;;;5053826;28;20049;-61
2023/09/23 11:05:46;;;;;;;2.03;0.93;;;;;;;;;;5052189;28;20033;-61
2023/09/23 11:08:14;;;;;;;1.42;0.77;;;;;;;;;;5050149;28;20043;-60
2023/09/23 11:10:43;;;;;;;0.80;0.45;;;;;;;;;;5051767;28;20533;-61
2023/09/23 11:13:10;;;;;;;0.98;0.60;;;;;;;;;;5051496;28;20585;-61
2023/09/23 11:15:40;;;;;;;1.23;0.20;;;;;;;;;;5057349;28;20040;-61
2023/09/23 11:18:09;;;;;;;4.90;0.43;;;;;;;;;;5050802;28;20116;-61
2023/09/23 11:20:38;;;;;;;0.50;0.20;;;;;;;;;;5051136;28;20087;-60
2023/09/23 11:23:05;;;;;;;0.40;0.20;;;;;;;;;;5044960;28;20032;-61
2023/09/23 11:25:36;;;;;;;0.20;0.20;;;;;;;;;;5050750;28;20089;-61
2023/09/23 11:28:02;;;;;;;0.20;0.20;;;;;;;;;;5052539;28;20567;-61
2023/09/23 11:30:28;;;;;;;2.60;0.20;;;;;;;;;;5049854;28;20116;-62
2023/09/23 11:32:56;;;;;;;1.85;0.50;;;;;;;;;;5052746;28;20097;-62
2023/09/23 11:35:22;;;;;;;0.75;0.30;;;;;;;;;;5048744;28;20049;-60
2023/09/23 11:37:49;;;;;;;0.65;0.20;;;;;;;;;;5050536;28;20037;-60
2023/09/23 11:40:15;;;;;;;0.93;0.28;;;;;;;;;;5048803;28;20115;-60
2023/09/23 11:42:41;;;;;;;0.13;0.13;;;;;;;;;;5046438;28;20120;-60
2023/09/23 11:45:10;;;;;;;0.10;0.10;;;;;;;;;;5049252;28;20416;-61
2023/09/23 11:47:38;;;;;;;0.10;0.10;;;;;;;;;;5054239;28;20553;-61
2023/09/23 11:50:05;;;;;;;0.10;0.10;;;;;;;;;;5054158;28;20041;-60
2023/09/23 11:52:34;;;;;;;0.10;0.10;;;;;;;;;;5046082;28;20040;-61
2023/09/23 11:55:01;;;;;;;0.32;0.10;;;;;;;;;;5052198;28;20052;-61
2023/09/23 11:57:27;;;;;;;0.05;0.05;;;;;;;;;;5047717;28;20096;-61
2023/09/23 11:59:53;;;;;;;0.05;0.05;;;;;;;;;;5049679;28;20060;-61
2023/09/23 12:02:21;;;;;;;0.20;0.20;;;;;;;;;;5046700;28;20409;-61
2023/09/23 12:04:47;;;;;;;0.10;0.10;;;;;;;;;;5053360;28;20086;-61
2023/09/23 12:07:21;;;;;;;0.10;0.10;;;;;;;;;;5052870;28;20048;-61
2023/09/23 12:09:48;;;;;;;0.25;0.22;;;;;;;;;;5047333;28;20124;-61
2023/09/23 12:12:14;;;;;;;0.20;0.10;;;;;;;;;;5048200;28;20044;-60
2023/09/23 12:14:42;;;;;;;0.10;0.10;;;;;;;;;;5051966;28;20080;-61
2023/09/23 12:17:09;;;;;;;0.32;0.17;;;;;;;;;;5048907;28;20048;-61
2023/09/23 12:19:35;;;;;;;0.90;0.35;;;;;;;;;;5045899;28;20044;-61
2023/09/23 12:22:01;;;;;;;0.65;0.43;;;;;;;;;;5049837;28;20044;-61
2023/09/23 12:24:27;;;;;;;0.10;0.10;;;;;;;;;;5048226;28;20037;-61
2023/09/23 12:26:53;;;;;;;0.30;0.20;;;;;;;;;;5050862;28;20431;-60
2023/09/23 12:29:19;;;;;;;0.65;0.20;;;;;;;;;;5048000;28;20684;-61
2023/09/23 12:31:45;;;;;;;0.10;0.10;;;;;;;;;;5049688;28;20091;-61
2023/09/23 12:34:11;;;;;;;0.10;0.10;;;;;;;;;;5049312;28;20102;-61
2023/09/23 12:36:37;;;;;;;1.55;0.30;;;;;;;;;;5049577;28;20062;-61
2023/09/23 12:39:03;;;;;;;0.93;0.20;;;;;;;;;;5045907;28;20497;-61
2023/09/23 12:41:29;;;;;;;0.45;0.25;;;;;;;;;;5050910;28;20041;-61
2023/09/23 12:43:57;;;;;;;0.30;0.20;;;;;;;;;;5046227;28;20440;-62
2023/09/23 12:46:23;;;;;;;0.28;0.28;;;;;;;;;;5048563;28;20037;-61
2023/09/23 12:48:49;;;;;;;0.45;0.30;;;;;;;;;;5048753;28;20044;-61
2023/09/23 12:51:15;;;;;;;0.28;0.28;;;;;;;;;;5048503;28;20179;-61
2023/09/23 12:53:41;;;;;;;1.15;0.30;;;;;;;;;;5047392;28;20033;-61
2023/09/23 12:56:09;;;;;;;0.60;0.40;;;;;;;;;;5045694;28;20473;-61
2023/09/23 12:58:35;;;;;;;0.40;0.30;;;;;;;;;;5049637;28;20104;-61
2023/09/23 13:01:01;;;;;;;1.65;0.40;;;;;;;;;;5052518;28;20144;-61
2023/09/23 13:03:27;;;;;;;0.88;0.30;;;;;;;;;;5047505;28;20041;-61
2023/09/23 13:05:53;;;;;;;2.03;0.40;;;;;;;;;;5054208;28;20056;-61
2023/09/23 13:08:19;;;;;;;0.95;0.30;;;;;;;;;;5049567;28;20048;-61
2023/09/23 13:10:46;;;;;;;0.20;0.20;;;;;;;;;;5048441;28;20045;-61
2023/09/23 13:13:13;;;;;;;0.40;0.20;;;;;;;;;;5046879;28;20069;-61
2023/09/23 13:15:40;;;;;;;0.80;0.30;;;;;;;;;;5044905;28;20195;-61
2023/09/23 13:18:06;;;;;;;0.85;0.32;;;;;;;;;;5047218;28;20132;-61
2023/09/23 13:20:32;;;;;;;0.00;0.00;;;;;;;;;;5051412;28;20170;-61
2023/09/23 13:22:58;;;;;;;1.67;0.20;;;;;;;;;;5048052;28;20524;-62
2023/09/23 13:25:25;;;;;;;0.10;0.10;;;;;;;;;;5051491;28;20040;-62
2023/09/23 13:27:52;;;;;;;0.10;0.10;;;;;;;;;;5048546;28;20581;-61
2023/09/23 13:30:18;;;;;;;0.52;0.10;;;;;;;;;;5048602;28;20041;-61
2023/09/23 13:32:45;;;;;;;0.13;0.10;;;;;;;;;;5046296;28;20039;-61
2023/09/23 13:35:11;;;;;;;0.10;0.10;;;;;;;;;;5049053;28;20083;-61
2023/09/23 13:37:37;;;;;;;0.20;0.10;;;;;;;;;;5049299;28;20109;-61
2023/09/23 13:40:04;;;;;;;0.15;0.10;;;;;;;;;;5049673;28;20071;-61
2023/09/23 13:42:30;;;;;;;0.00;0.00;;;;;;;;;;5050387;28;20298;-61
2023/09/23 13:44:56;;;;;;;0.08;0.00;;;;;;;;;;5045470;28;20128;-61
2023/09/23 13:47:23;;;;;;;0.32;0.20;;;;;;;;;;5043883;28;20048;-61
2023/09/23 13:49:49;;;;;;;0.10;0.10;;;;;;;;;;5043846;28;20048;-61
2023/09/23 13:52:15;;;;;;;0.80;0.20;;;;;;;;;;5044620;28;20045;-61
2023/09/23 13:54:41;;;;;;;0.20;0.10;;;;;;;;;;5048094;28;20044;-60
2023/09/23 13:57:07;;;;;;;0.10;0.00;;;;;;;;;;5043205;28;20041;-61
2023/09/23 13:59:33;;;;;;;0.35;0.10;;;;;;;;;;5042173;28;20142;-61
2023/09/23 14:01:59;;;;;;;0.00;0.00;;;;;;;;;;5047107;28;20118;-61
2023/09/23 14:04:25;;;;;;;0.98;0.20;;;;;;;;;;5046802;28;20477;-61
2023/09/23 14:06:51;;;;;;;0.63;0.20;;;;;;;;;;5054730;28;20052;-60
2023/09/23 14:09:17;;;;;;;0.10;0.10;;;;;;;;;;5058267;28;20040;-61
2023/09/23 14:11:43;;;;;;;0.20;0.17;;;;;;;;;;5048207;28;20142;-61
2023/09/23 14:14:09;;;;;;;0.47;0.20;;;;;;;;;;5045622;28;20688;-61
2023/09/23 14:16:35;;;;;;;0.10;0.10;;;;;;;;;;5047076;28;20051;-61
2023/09/23 14:19:01;;;;;;;0.22;0.20;;;;;;;;;;5054744;28;20099;-61
2023/09/23 14:21:27;;;;;;;0.22;0.10;;;;;;;;;;5058332;28;20036;-61
2023/09/23 14:23:53;;;;;;;0.10;0.10;;;;;;;;;;5058030;28;20075;-61
2023/09/23 14:26:20;;;;;;;0.13;0.13;;;;;;;;;;5053638;28;20037;-61
2023/09/23 14:28:46;;;;;;;0.10;0.10;;;;;;;;;;5047844;28;20431;-61
2023/09/23 14:31:12;;;;;;;0.10;0.10;;;;;;;;;;5048911;28;20073;-61
2023/09/23 14:33:38;;;;;;;0.10;0.00;;;;;;;;;;5053163;28;20041;-60
2023/09/23 14:36:05;;;;;;;0.10;0.10;;;;;;;;;;5047916;28;20090;-61
2023/09/23 14:38:31;;;;;;;0.63;0.10;;;;;;;;;;5047274;28;20653;-61
2023/09/23 14:40:57;;;;;;;0.10;0.10;;;;;;;;;;5056616;28;20041;-61